Terminal Aerodrome Forecast
Issued by NWS

Home | Current Version | Previous Version | Text Only | Print | Product List | Glossary On
Versions: 1 2 3 4 5 6 7 8 9 10 11 12 13 14 15 16 17
014
FTUS45 KRIW 221126
TAFCPR
TAF
KCPR 221126Z 2212/2312 VRB06KT P6SM VCFG FEW002
     FM221500 02010KT P6SM FEW030
     FM221800 VRB06KT P6SM FEW060
     FM230200 11009KT P6SM SCT080=

USA.gov is the U.S. government's official web portal to all federal, state and local government web resources and services.